sensor_id;sensor_type;location;lat;lon;timestamp;P1;durP1;ratioP1;P2;durP2;ratioP2
71265;SDS011;59030;52.052;8.550;2023-05-07T00:01:43;17.27;;;11.07;;
71265;SDS011;59030;52.052;8.550;2023-05-07T00:04:11;15.77;;;10.90;;
71265;SDS011;59030;52.052;8.550;2023-05-07T00:06:39;19.40;;;11.83;;
71265;SDS011;59030;52.052;8.550;2023-05-07T00:09:06;15.30;;;11.60;;
71265;SDS011;59030;52.052;8.550;2023-05-07T00:11:34;16.93;;;11.37;;
71265;SDS011;59030;52.052;8.550;2023-05-07T00:14:01;17.90;;;11.70;;
71265;SDS011;59030;52.052;8.550;2023-05-07T00:16:28;16.17;;;11.47;;
71265;SDS011;59030;52.052;8.550;2023-05-07T00:18:55;16.97;;;11.27;;
71265;SDS011;59030;52.052;8.550;2023-05-07T00:21:23;16.53;;;11.10;;
71265;SDS011;59030;52.052;8.550;2023-05-07T00:23:52;14.10;;;11.27;;
71265;SDS011;59030;52.052;8.550;2023-05-07T00:26:20;14.53;;;10.73;;
71265;SDS011;59030;52.052;8.550;2023-05-07T00:28:47;17.60;;;11.40;;
71265;SDS011;59030;52.052;8.550;2023-05-07T00:31:14;17.87;;;11.87;;
71265;SDS011;59030;52.052;8.550;2023-05-07T00:33:42;16.43;;;11.23;;
71265;SDS011;59030;52.052;8.550;2023-05-07T00:36:09;16.37;;;11.57;;
71265;SDS011;59030;52.052;8.550;2023-05-07T00:38:36;14.93;;;10.67;;
71265;SDS011;59030;52.052;8.550;2023-05-07T00:41:04;19.20;;;11.17;;
71265;SDS011;59030;52.052;8.550;2023-05-07T00:43:31;18.73;;;11.60;;
71265;SDS011;59030;52.052;8.550;2023-05-07T00:45:58;18.07;;;12.13;;
71265;SDS011;59030;52.052;8.550;2023-05-07T00:48:26;16.13;;;11.23;;
71265;SDS011;59030;52.052;8.550;2023-05-07T00:50:54;15.57;;;11.57;;
71265;SDS011;59030;52.052;8.550;2023-05-07T00:53:21;16.37;;;11.30;;
71265;SDS011;59030;52.052;8.550;2023-05-07T00:55:48;17.27;;;11.73;;
71265;SDS011;59030;52.052;8.550;2023-05-07T00:58:16;17.77;;;11.53;;
71265;SDS011;59030;52.052;8.550;2023-05-07T01:00:43;17.00;;;12.07;;
71265;SDS011;59030;52.052;8.550;2023-05-07T01:03:10;19.47;;;11.63;;
71265;SDS011;59030;52.052;8.550;2023-05-07T01:05:38;18.23;;;11.67;;
71265;SDS011;59030;52.052;8.550;2023-05-07T01:08:05;17.27;;;12.27;;
71265;SDS011;59030;52.052;8.550;2023-05-07T01:10:33;17.37;;;11.57;;
71265;SDS011;59030;52.052;8.550;2023-05-07T01:13:00;19.00;;;11.83;;
71265;SDS011;59030;52.052;8.550;2023-05-07T01:15:28;18.60;;;12.23;;
71265;SDS011;59030;52.052;8.550;2023-05-07T01:17:55;17.70;;;11.97;;
71265;SDS011;59030;52.052;8.550;2023-05-07T01:20:23;17.87;;;12.13;;
71265;SDS011;59030;52.052;8.550;2023-05-07T01:22:50;20.30;;;12.37;;
71265;SDS011;59030;52.052;8.550;2023-05-07T01:25:17;17.73;;;11.60;;
71265;SDS011;59030;52.052;8.550;2023-05-07T01:27:45;17.83;;;12.50;;
71265;SDS011;59030;52.052;8.550;2023-05-07T01:30:13;18.47;;;12.13;;
71265;SDS011;59030;52.052;8.550;2023-05-07T01:32:41;15.93;;;11.50;;
71265;SDS011;59030;52.052;8.550;2023-05-07T01:35:11;19.37;;;12.57;;
71265;SDS011;59030;52.052;8.550;2023-05-07T01:37:38;19.03;;;11.60;;
71265;SDS011;59030;52.052;8.550;2023-05-07T01:40:07;18.50;;;12.43;;
71265;SDS011;59030;52.052;8.550;2023-05-07T01:42:34;18.73;;;12.13;;
71265;SDS011;59030;52.052;8.550;2023-05-07T01:45:02;17.63;;;12.13;;
71265;SDS011;59030;52.052;8.550;2023-05-07T01:47:29;17.37;;;12.23;;
71265;SDS011;59030;52.052;8.550;2023-05-07T01:49:57;18.20;;;12.47;;
71265;SDS011;59030;52.052;8.550;2023-05-07T01:52:25;16.93;;;11.40;;
71265;SDS011;59030;52.052;8.550;2023-05-07T01:54:52;20.63;;;14.00;;
71265;SDS011;59030;52.052;8.550;2023-05-07T01:57:19;19.60;;;12.20;;
71265;SDS011;59030;52.052;8.550;2023-05-07T01:59:47;17.70;;;12.33;;
71265;SDS011;59030;52.052;8.550;2023-05-07T02:02:14;20.23;;;12.93;;
71265;SDS011;59030;52.052;8.550;2023-05-07T02:04:42;17.93;;;12.53;;
71265;SDS011;59030;52.052;8.550;2023-05-07T02:07:09;16.77;;;12.07;;
71265;SDS011;59030;52.052;8.550;2023-05-07T02:09:36;17.23;;;12.57;;
71265;SDS011;59030;52.052;8.550;2023-05-07T02:12:04;19.33;;;12.10;;
71265;SDS011;59030;52.052;8.550;2023-05-07T02:14:32;18.03;;;12.67;;
71265;SDS011;59030;52.052;8.550;2023-05-07T02:16:59;20.40;;;12.63;;
71265;SDS011;59030;52.052;8.550;2023-05-07T02:19:26;18.97;;;12.97;;
71265;SDS011;59030;52.052;8.550;2023-05-07T02:21:54;19.37;;;12.27;;
71265;SDS011;59030;52.052;8.550;2023-05-07T02:24:21;17.20;;;12.60;;
71265;SDS011;59030;52.052;8.550;2023-05-07T02:26:48;19.50;;;12.77;;
71265;SDS011;59030;52.052;8.550;2023-05-07T02:29:16;20.30;;;12.63;;
71265;SDS011;59030;52.052;8.550;2023-05-07T02:31:43;20.70;;;12.80;;
71265;SDS011;59030;52.052;8.550;2023-05-07T02:34:11;18.87;;;12.87;;
71265;SDS011;59030;52.052;8.550;2023-05-07T02:36:38;20.37;;;12.40;;
71265;SDS011;59030;52.052;8.550;2023-05-07T02:39:06;17.33;;;12.63;;
71265;SDS011;59030;52.052;8.550;2023-05-07T02:41:33;19.00;;;12.90;;
71265;SDS011;59030;52.052;8.550;2023-05-07T02:44:00;20.30;;;13.27;;
71265;SDS011;59030;52.052;8.550;2023-05-07T02:46:28;17.83;;;12.57;;
71265;SDS011;59030;52.052;8.550;2023-05-07T02:48:55;18.90;;;12.93;;
71265;SDS011;59030;52.052;8.550;2023-05-07T02:51:22;21.53;;;12.83;;
71265;SDS011;59030;52.052;8.550;2023-05-07T02:53:51;18.30;;;12.93;;
71265;SDS011;59030;52.052;8.550;2023-05-07T02:56:19;20.10;;;12.77;;
71265;SDS011;59030;52.052;8.550;2023-05-07T02:58:47;20.67;;;12.97;;
71265;SDS011;59030;52.052;8.550;2023-05-07T03:01:14;18.77;;;12.90;;
71265;SDS011;59030;52.052;8.550;2023-05-07T03:03:41;18.07;;;11.70;;
71265;SDS011;59030;52.052;8.550;2023-05-07T03:06:09;24.20;;;13.50;;
71265;SDS011;59030;52.052;8.550;2023-05-07T03:08:36;18.17;;;12.37;;
71265;SDS011;59030;52.052;8.550;2023-05-07T03:11:03;17.97;;;12.67;;
71265;SDS011;59030;52.052;8.550;2023-05-07T03:13:31;17.63;;;12.83;;
71265;SDS011;59030;52.052;8.550;2023-05-07T03:15:58;18.60;;;12.57;;
71265;SDS011;59030;52.052;8.550;2023-05-07T03:18:25;17.63;;;12.43;;
71265;SDS011;59030;52.052;8.550;2023-05-07T03:20:52;18.57;;;12.30;;
71265;SDS011;59030;52.052;8.550;2023-05-07T03:23:20;21.90;;;12.30;;
71265;SDS011;59030;52.052;8.550;2023-05-07T03:25:47;20.10;;;12.70;;
71265;SDS011;59030;52.052;8.550;2023-05-07T03:28:15;19.70;;;12.03;;
71265;SDS011;59030;52.052;8.550;2023-05-07T03:30:42;17.17;;;12.53;;
71265;SDS011;59030;52.052;8.550;2023-05-07T03:33:10;19.20;;;12.50;;
71265;SDS011;59030;52.052;8.550;2023-05-07T03:35:37;20.33;;;12.83;;
71265;SDS011;59030;52.052;8.550;2023-05-07T03:38:05;20.00;;;12.67;;
71265;SDS011;59030;52.052;8.550;2023-05-07T03:40:32;20.30;;;13.13;;
71265;SDS011;59030;52.052;8.550;2023-05-07T03:43:00;18.57;;;13.30;;
71265;SDS011;59030;52.052;8.550;2023-05-07T03:45:27;18.37;;;12.80;;
71265;SDS011;59030;52.052;8.550;2023-05-07T03:47:54;20.63;;;12.53;;
71265;SDS011;59030;52.052;8.550;2023-05-07T03:50:22;19.30;;;12.87;;
71265;SDS011;59030;52.052;8.550;2023-05-07T03:52:49;19.77;;;13.43;;
71265;SDS011;59030;52.052;8.550;2023-05-07T03:55:16;19.30;;;13.03;;
71265;SDS011;59030;52.052;8.550;2023-05-07T03:57:44;19.87;;;13.23;;
71265;SDS011;59030;52.052;8.550;2023-05-07T04:00:12;17.97;;;12.63;;
71265;SDS011;59030;52.052;8.550;2023-05-07T04:02:40;21.10;;;12.17;;
71265;SDS011;59030;52.052;8.550;2023-05-07T04:05:08;16.87;;;12.30;;
71265;SDS011;59030;52.052;8.550;2023-05-07T04:07:35;22.40;;;13.33;;
71265;SDS011;59030;52.052;8.550;2023-05-07T04:10:03;18.53;;;12.87;;
71265;SDS011;59030;52.052;8.550;2023-05-07T04:12:31;19.47;;;13.17;;
71265;SDS011;59030;52.052;8.550;2023-05-07T04:14:58;20.57;;;13.00;;
71265;SDS011;59030;52.052;8.550;2023-05-07T04:17:25;22.07;;;13.43;;
71265;SDS011;59030;52.052;8.550;2023-05-07T04:19:52;20.27;;;13.03;;
71265;SDS011;59030;52.052;8.550;2023-05-07T04:22:20;18.63;;;12.93;;
71265;SDS011;59030;52.052;8.550;2023-05-07T04:24:47;20.03;;;12.70;;
71265;SDS011;59030;52.052;8.550;2023-05-07T04:27:14;18.30;;;12.47;;
71265;SDS011;59030;52.052;8.550;2023-05-07T04:29:42;18.90;;;12.70;;
71265;SDS011;59030;52.052;8.550;2023-05-07T04:32:11;20.33;;;13.23;;
71265;SDS011;59030;52.052;8.550;2023-05-07T04:34:38;22.30;;;13.47;;
71265;SDS011;59030;52.052;8.550;2023-05-07T04:37:06;20.97;;;12.97;;
71265;SDS011;59030;52.052;8.550;2023-05-07T04:39:33;17.97;;;12.83;;
71265;SDS011;59030;52.052;8.550;2023-05-07T04:42:01;20.43;;;13.20;;
71265;SDS011;59030;52.052;8.550;2023-05-07T04:44:29;21.60;;;13.43;;
71265;SDS011;59030;52.052;8.550;2023-05-07T04:46:57;22.60;;;13.93;;
71265;SDS011;59030;52.052;8.550;2023-05-07T04:49:24;21.97;;;14.00;;
71265;SDS011;59030;52.052;8.550;2023-05-07T04:51:51;22.97;;;14.27;;
71265;SDS011;59030;52.052;8.550;2023-05-07T04:54:19;19.87;;;13.97;;
71265;SDS011;59030;52.052;8.550;2023-05-07T04:56:46;18.23;;;13.53;;
71265;SDS011;59030;52.052;8.550;2023-05-07T04:59:13;20.33;;;13.40;;
71265;SDS011;59030;52.052;8.550;2023-05-07T05:01:41;21.73;;;13.90;;
71265;SDS011;59030;52.052;8.550;2023-05-07T05:04:08;21.40;;;13.13;;
71265;SDS011;59030;52.052;8.550;2023-05-07T05:06:36;19.17;;;12.50;;
71265;SDS011;59030;52.052;8.550;2023-05-07T05:09:03;20.97;;;14.20;;
71265;SDS011;59030;52.052;8.550;2023-05-07T05:11:31;21.57;;;13.77;;
71265;SDS011;59030;52.052;8.550;2023-05-07T05:13:59;20.27;;;13.73;;
71265;SDS011;59030;52.052;8.550;2023-05-07T05:16:28;20.87;;;14.13;;
71265;SDS011;59030;52.052;8.550;2023-05-07T05:18:55;19.10;;;13.53;;
71265;SDS011;59030;52.052;8.550;2023-05-07T05:21:22;24.00;;;14.20;;
71265;SDS011;59030;52.052;8.550;2023-05-07T05:23:50;21.33;;;14.00;;
71265;SDS011;59030;52.052;8.550;2023-05-07T05:26:17;20.87;;;14.00;;
71265;SDS011;59030;52.052;8.550;2023-05-07T05:28:45;20.33;;;13.00;;
71265;SDS011;59030;52.052;8.550;2023-05-07T05:31:12;20.90;;;14.03;;
71265;SDS011;59030;52.052;8.550;2023-05-07T05:33:40;20.70;;;14.00;;
71265;SDS011;59030;52.052;8.550;2023-05-07T05:36:09;22.13;;;13.70;;
71265;SDS011;59030;52.052;8.550;2023-05-07T05:38:38;19.90;;;13.63;;
71265;SDS011;59030;52.052;8.550;2023-05-07T05:41:05;22.07;;;13.60;;
71265;SDS011;59030;52.052;8.550;2023-05-07T05:43:32;20.60;;;13.53;;
71265;SDS011;59030;52.052;8.550;2023-05-07T05:46:00;19.93;;;13.27;;
71265;SDS011;59030;52.052;8.550;2023-05-07T05:48:28;22.60;;;13.30;;
71265;SDS011;59030;52.052;8.550;2023-05-07T05:50:56;21.00;;;14.03;;
71265;SDS011;59030;52.052;8.550;2023-05-07T05:53:23;22.03;;;13.53;;
71265;SDS011;59030;52.052;8.550;2023-05-07T05:55:50;25.40;;;14.03;;
71265;SDS011;59030;52.052;8.550;2023-05-07T05:58:18;19.37;;;13.07;;
71265;SDS011;59030;52.052;8.550;2023-05-07T06:00:45;20.03;;;12.77;;
71265;SDS011;59030;52.052;8.550;2023-05-07T06:03:14;21.57;;;13.90;;
71265;SDS011;59030;52.052;8.550;2023-05-07T06:05:41;18.87;;;12.90;;
71265;SDS011;59030;52.052;8.550;2023-05-07T06:08:09;21.77;;;13.80;;
71265;SDS011;59030;52.052;8.550;2023-05-07T06:10:36;20.40;;;12.80;;
71265;SDS011;59030;52.052;8.550;2023-05-07T06:13:03;19.53;;;12.93;;
71265;SDS011;59030;52.052;8.550;2023-05-07T06:15:31;19.47;;;13.30;;
71265;SDS011;59030;52.052;8.550;2023-05-07T06:17:58;18.70;;;12.90;;
71265;SDS011;59030;52.052;8.550;2023-05-07T06:20:25;21.93;;;13.60;;
71265;SDS011;59030;52.052;8.550;2023-05-07T06:22:53;22.67;;;13.27;;
71265;SDS011;59030;52.052;8.550;2023-05-07T06:25:20;21.80;;;13.10;;
71265;SDS011;59030;52.052;8.550;2023-05-07T06:27:47;16.80;;;11.97;;
71265;SDS011;59030;52.052;8.550;2023-05-07T06:30:15;16.93;;;12.63;;
71265;SDS011;59030;52.052;8.550;2023-05-07T06:32:42;19.13;;;12.00;;
71265;SDS011;59030;52.052;8.550;2023-05-07T06:35:10;18.83;;;12.00;;
71265;SDS011;59030;52.052;8.550;2023-05-07T06:37:37;20.87;;;12.37;;
71265;SDS011;59030;52.052;8.550;2023-05-07T06:40:06;18.27;;;11.83;;
71265;SDS011;59030;52.052;8.550;2023-05-07T06:42:35;18.23;;;11.80;;
71265;SDS011;59030;52.052;8.550;2023-05-07T06:45:03;19.37;;;12.27;;
71265;SDS011;59030;52.052;8.550;2023-05-07T06:47:30;22.70;;;11.90;;
71265;SDS011;59030;52.052;8.550;2023-05-07T06:49:58;16.70;;;11.23;;
71265;SDS011;59030;52.052;8.550;2023-05-07T06:52:25;17.47;;;11.90;;
71265;SDS011;59030;52.052;8.550;2023-05-07T06:54:52;19.67;;;11.50;;
71265;SDS011;59030;52.052;8.550;2023-05-07T06:57:20;16.63;;;11.10;;
71265;SDS011;59030;52.052;8.550;2023-05-07T06:59:47;15.87;;;11.07;;
71265;SDS011;59030;52.052;8.550;2023-05-07T07:02:15;16.10;;;10.37;;
71265;SDS011;59030;52.052;8.550;2023-05-07T07:04:42;16.17;;;10.53;;
71265;SDS011;59030;52.052;8.550;2023-05-07T07:07:11;19.33;;;10.83;;
71265;SDS011;59030;52.052;8.550;2023-05-07T07:09:38;15.67;;;10.67;;
71265;SDS011;59030;52.052;8.550;2023-05-07T07:12:06;16.30;;;10.57;;
71265;SDS011;59030;52.052;8.550;2023-05-07T07:14:33;13.87;;;9.73;;
71265;SDS011;59030;52.052;8.550;2023-05-07T07:17:00;15.73;;;10.07;;
71265;SDS011;59030;52.052;8.550;2023-05-07T07:19:28;13.50;;;9.43;;
71265;SDS011;59030;52.052;8.550;2023-05-07T07:21:56;13.37;;;9.27;;
71265;SDS011;59030;52.052;8.550;2023-05-07T07:24:23;13.07;;;9.30;;
71265;SDS011;59030;52.052;8.550;2023-05-07T07:26:50;13.13;;;9.23;;
71265;SDS011;59030;52.052;8.550;2023-05-07T07:29:18;12.60;;;8.60;;
71265;SDS011;59030;52.052;8.550;2023-05-07T07:31:45;13.27;;;9.03;;
71265;SDS011;59030;52.052;8.550;2023-05-07T07:34:12;13.70;;;9.03;;
71265;SDS011;59030;52.052;8.550;2023-05-07T07:36:40;14.20;;;8.67;;
71265;SDS011;59030;52.052;8.550;2023-05-07T07:39:08;11.70;;;8.60;;
71265;SDS011;59030;52.052;8.550;2023-05-07T07:41:35;14.07;;;8.73;;
71265;SDS011;59030;52.052;8.550;2023-05-07T07:44:03;12.40;;;8.80;;
71265;SDS011;59030;52.052;8.550;2023-05-07T07:46:32;11.50;;;8.80;;
71265;SDS011;59030;52.052;8.550;2023-05-07T07:48:59;13.07;;;8.80;;
71265;SDS011;59030;52.052;8.550;2023-05-07T07:51:27;12.73;;;9.27;;
71265;SDS011;59030;52.052;8.550;2023-05-07T07:53:54;11.77;;;8.90;;
71265;SDS011;59030;52.052;8.550;2023-05-07T07:56:23;10.53;;;8.10;;
71265;SDS011;59030;52.052;8.550;2023-05-07T07:58:51;11.33;;;8.23;;
71265;SDS011;59030;52.052;8.550;2023-05-07T08:01:18;11.63;;;8.50;;
71265;SDS011;59030;52.052;8.550;2023-05-07T08:03:46;11.43;;;8.13;;
71265;SDS011;59030;52.052;8.550;2023-05-07T08:06:13;12.87;;;8.83;;
71265;SDS011;59030;52.052;8.550;2023-05-07T08:08:41;9.70;;;7.83;;
71265;SDS011;59030;52.052;8.550;2023-05-07T08:11:08;10.83;;;8.13;;
71265;SDS011;59030;52.052;8.550;2023-05-07T08:13:36;11.40;;;8.07;;
71265;SDS011;59030;52.052;8.550;2023-05-07T08:16:05;14.70;;;8.43;;
71265;SDS011;59030;52.052;8.550;2023-05-07T08:18:35;9.97;;;7.47;;
71265;SDS011;59030;52.052;8.550;2023-05-07T08:21:03;9.97;;;7.50;;
71265;SDS011;59030;52.052;8.550;2023-05-07T08:23:30;13.33;;;7.87;;
71265;SDS011;59030;52.052;8.550;2023-05-07T08:25:58;11.93;;;8.70;;
71265;SDS011;59030;52.052;8.550;2023-05-07T08:28:25;9.67;;;7.37;;
71265;SDS011;59030;52.052;8.550;2023-05-07T08:30:55;8.97;;;6.77;;
71265;SDS011;59030;52.052;8.550;2023-05-07T08:33:24;10.53;;;7.57;;
71265;SDS011;59030;52.052;8.550;2023-05-07T08:35:52;11.70;;;7.80;;
71265;SDS011;59030;52.052;8.550;2023-05-07T08:38:19;10.53;;;7.73;;
71265;SDS011;59030;52.052;8.550;2023-05-07T08:40:50;10.13;;;7.40;;
71265;SDS011;59030;52.052;8.550;2023-05-07T08:43:17;9.63;;;7.20;;
71265;SDS011;59030;52.052;8.550;2023-05-07T08:45:45;10.20;;;7.60;;
71265;SDS011;59030;52.052;8.550;2023-05-07T08:48:15;9.13;;;7.30;;
71265;SDS011;59030;52.052;8.550;2023-05-07T08:50:42;9.30;;;7.03;;
71265;SDS011;59030;52.052;8.550;2023-05-07T08:53:10;9.33;;;6.83;;
71265;SDS011;59030;52.052;8.550;2023-05-07T08:55:37;9.87;;;7.60;;
71265;SDS011;59030;52.052;8.550;2023-05-07T08:58:05;10.50;;;7.30;;
71265;SDS011;59030;52.052;8.550;2023-05-07T09:00:33;9.93;;;7.50;;
71265;SDS011;59030;52.052;8.550;2023-05-07T09:03:00;9.23;;;7.13;;
71265;SDS011;59030;52.052;8.550;2023-05-07T09:05:28;9.20;;;7.23;;
71265;SDS011;59030;52.052;8.550;2023-05-07T09:07:58;8.83;;;6.87;;
71265;SDS011;59030;52.052;8.550;2023-05-07T09:10:25;9.50;;;7.23;;
71265;SDS011;59030;52.052;8.550;2023-05-07T09:12:53;9.77;;;7.13;;
71265;SDS011;59030;52.052;8.550;2023-05-07T09:15:21;8.23;;;6.70;;
71265;SDS011;59030;52.052;8.550;2023-05-07T09:17:49;11.80;;;7.20;;
71265;SDS011;59030;52.052;8.550;2023-05-07T09:20:21;9.60;;;6.70;;
71265;SDS011;59030;52.052;8.550;2023-05-07T09:23:02;7.77;;;6.60;;
71265;SDS011;59030;52.052;8.550;2023-05-07T09:25:31;8.80;;;6.77;;
71265;SDS011;59030;52.052;8.550;2023-05-07T09:28:03;8.67;;;6.23;;
71265;SDS011;59030;52.052;8.550;2023-05-07T09:30:32;10.77;;;6.93;;
71265;SDS011;59030;52.052;8.550;2023-05-07T09:33:05;9.80;;;7.23;;
71265;SDS011;59030;52.052;8.550;2023-05-07T09:35:33;8.90;;;6.67;;
71265;SDS011;59030;52.052;8.550;2023-05-07T09:38:03;8.63;;;6.60;;
71265;SDS011;59030;52.052;8.550;2023-05-07T09:40:32;10.27;;;7.30;;
71265;SDS011;59030;52.052;8.550;2023-05-07T09:43:09;9.43;;;6.90;;
71265;SDS011;59030;52.052;8.550;2023-05-07T09:45:37;7.70;;;6.23;;
71265;SDS011;59030;52.052;8.550;2023-05-07T09:48:05;8.47;;;6.27;;
71265;SDS011;59030;52.052;8.550;2023-05-07T09:50:43;10.40;;;6.70;;
71265;SDS011;59030;52.052;8.550;2023-05-07T09:53:08;8.37;;;6.90;;
71265;SDS011;59030;52.052;8.550;2023-05-07T09:55:37;7.53;;;6.00;;
71265;SDS011;59030;52.052;8.550;2023-05-07T09:58:05;7.27;;;5.93;;
71265;SDS011;59030;52.052;8.550;2023-05-07T10:00:40;10.40;;;7.27;;
71265;SDS011;59030;52.052;8.550;2023-05-07T10:03:15;8.40;;;6.83;;
71265;SDS011;59030;52.052;8.550;2023-05-07T10:05:49;9.63;;;5.80;;
71265;SDS011;59030;52.052;8.550;2023-05-07T10:08:18;8.37;;;6.40;;
71265;SDS011;59030;52.052;8.550;2023-05-07T10:10:52;8.13;;;6.40;;
71265;SDS011;59030;52.052;8.550;2023-05-07T10:13:20;8.33;;;6.40;;
71265;SDS011;59030;52.052;8.550;2023-05-07T10:15:49;9.10;;;6.73;;
71265;SDS011;59030;52.052;8.550;2023-05-07T10:18:18;9.30;;;6.60;;
71265;SDS011;59030;52.052;8.550;2023-05-07T10:21:06;11.17;;;6.73;;
71265;SDS011;59030;52.052;8.550;2023-05-07T10:24:03;8.07;;;6.13;;
71265;SDS011;59030;52.052;8.550;2023-05-07T10:26:32;8.77;;;6.27;;
71265;SDS011;59030;52.052;8.550;2023-05-07T10:29:03;8.37;;;6.33;;
71265;SDS011;59030;52.052;8.550;2023-05-07T10:31:37;8.70;;;6.40;;
71265;SDS011;59030;52.052;8.550;2023-05-07T10:34:10;8.37;;;6.10;;
71265;SDS011;59030;52.052;8.550;2023-05-07T10:36:40;7.17;;;6.00;;
71265;SDS011;59030;52.052;8.550;2023-05-07T10:39:08;8.27;;;6.07;;
71265;SDS011;59030;52.052;8.550;2023-05-07T10:41:38;8.57;;;6.10;;
71265;SDS011;59030;52.052;8.550;2023-05-07T10:44:08;9.33;;;5.80;;
71265;SDS011;59030;52.052;8.550;2023-05-07T10:46:39;7.20;;;5.97;;
71265;SDS011;59030;52.052;8.550;2023-05-07T10:49:10;6.87;;;5.83;;
71265;SDS011;59030;52.052;8.550;2023-05-07T10:51:42;8.13;;;6.60;;
71265;SDS011;59030;52.052;8.550;2023-05-07T10:54:23;8.07;;;6.07;;
71265;SDS011;59030;52.052;8.550;2023-05-07T10:56:52;7.83;;;6.30;;
71265;SDS011;59030;52.052;8.550;2023-05-07T10:59:33;6.67;;;5.60;;
71265;SDS011;59030;52.052;8.550;2023-05-07T11:02:03;7.07;;;6.10;;
71265;SDS011;59030;52.052;8.550;2023-05-07T11:04:32;6.90;;;5.73;;
71265;SDS011;59030;52.052;8.550;2023-05-07T11:09:57;7.53;;;5.27;;
71265;SDS011;59030;52.052;8.550;2023-05-07T11:15:12;9.63;;;5.80;;
71265;SDS011;59030;52.052;8.550;2023-05-07T11:17:52;6.93;;;5.53;;
71265;SDS011;59030;52.052;8.550;2023-05-07T11:20:20;7.20;;;5.70;;
71265;SDS011;59030;52.052;8.550;2023-05-07T11:22:49;7.33;;;5.77;;
71265;SDS011;59030;52.052;8.550;2023-05-07T11:25:19;8.63;;;5.63;;
71265;SDS011;59030;52.052;8.550;2023-05-07T11:27:47;6.90;;;5.47;;
71265;SDS011;59030;52.052;8.550;2023-05-07T11:30:19;6.37;;;5.40;;
71265;SDS011;59030;52.052;8.550;2023-05-07T11:32:47;7.37;;;5.70;;
71265;SDS011;59030;52.052;8.550;2023-05-07T11:35:15;6.07;;;4.90;;
71265;SDS011;59030;52.052;8.550;2023-05-07T11:37:44;6.10;;;4.97;;
71265;SDS011;59030;52.052;8.550;2023-05-07T12:11:56;5.90;;;3.97;;
71265;SDS011;59030;52.052;8.550;2023-05-07T12:14:27;4.92;;;4.08;;
71265;SDS011;59030;52.052;8.550;2023-05-07T12:16:55;5.00;;;3.90;;
71265;SDS011;59030;52.052;8.550;2023-05-07T12:19:23;4.40;;;4.00;;
71265;SDS011;59030;52.052;8.550;2023-05-07T12:21:50;7.80;;;4.20;;
71265;SDS011;59030;52.052;8.550;2023-05-07T12:24:18;4.28;;;3.70;;
71265;SDS011;59030;52.052;8.550;2023-05-07T12:30:11;4.27;;;3.80;;
71265;SDS011;59030;52.052;8.550;2023-05-07T12:32:38;3.58;;;3.27;;
71265;SDS011;59030;52.052;8.550;2023-05-07T12:35:08;4.13;;;3.30;;
71265;SDS011;59030;52.052;8.550;2023-05-07T12:37:36;5.20;;;3.60;;
71265;SDS011;59030;52.052;8.550;2023-05-07T12:40:05;3.77;;;3.33;;
71265;SDS011;59030;52.052;8.550;2023-05-07T12:42:33;4.57;;;3.83;;
71265;SDS011;59030;52.052;8.550;2023-05-07T12:45:08;4.93;;;3.67;;
71265;SDS011;59030;52.052;8.550;2023-05-07T12:47:39;4.50;;;3.67;;
71265;SDS011;59030;52.052;8.550;2023-05-07T12:50:07;4.37;;;3.80;;
71265;SDS011;59030;52.052;8.550;2023-05-07T12:52:36;3.60;;;3.30;;
71265;SDS011;59030;52.052;8.550;2023-05-07T12:55:12;3.80;;;3.40;;
71265;SDS011;59030;52.052;8.550;2023-05-07T12:57:42;4.57;;;3.40;;
71265;SDS011;59030;52.052;8.550;2023-05-07T13:00:14;4.30;;;3.37;;
71265;SDS011;59030;52.052;8.550;2023-05-07T13:02:42;4.57;;;3.67;;
71265;SDS011;59030;52.052;8.550;2023-05-07T13:05:10;5.93;;;3.50;;
71265;SDS011;59030;52.052;8.550;2023-05-07T13:07:39;3.90;;;3.23;;
71265;SDS011;59030;52.052;8.550;2023-05-07T13:10:13;3.62;;;3.20;;
71265;SDS011;59030;52.052;8.550;2023-05-07T13:15:16;3.92;;;3.10;;
71265;SDS011;59030;52.052;8.550;2023-05-07T13:17:47;3.37;;;3.07;;
71265;SDS011;59030;52.052;8.550;2023-05-07T13:20:16;3.40;;;3.10;;
71265;SDS011;59030;52.052;8.550;2023-05-07T13:22:45;3.30;;;3.00;;
71265;SDS011;59030;52.052;8.550;2023-05-07T13:25:13;3.50;;;3.12;;
71265;SDS011;59030;52.052;8.550;2023-05-07T13:27:40;4.37;;;3.33;;
71265;SDS011;59030;52.052;8.550;2023-05-07T13:30:08;4.28;;;3.42;;
71265;SDS011;59030;52.052;8.550;2023-05-07T13:32:36;4.47;;;3.70;;
71265;SDS011;59030;52.052;8.550;2023-05-07T13:35:03;3.98;;;3.55;;
71265;SDS011;59030;52.052;8.550;2023-05-07T13:37:31;3.40;;;3.10;;
71265;SDS011;59030;52.052;8.550;2023-05-07T13:39:59;3.80;;;3.40;;
71265;SDS011;59030;52.052;8.550;2023-05-07T13:42:26;3.67;;;3.33;;
71265;SDS011;59030;52.052;8.550;2023-05-07T13:44:56;4.25;;;3.85;;
71265;SDS011;59030;52.052;8.550;2023-05-07T13:47:24;4.28;;;3.52;;
71265;SDS011;59030;52.052;8.550;2023-05-07T13:49:57;4.00;;;3.52;;
71265;SDS011;59030;52.052;8.550;2023-05-07T13:52:24;3.35;;;3.05;;
71265;SDS011;59030;52.052;8.550;2023-05-07T14:04:18;4.10;;;3.70;;
71265;SDS011;59030;52.052;8.550;2023-05-07T14:24:01;4.50;;;4.10;;
71265;SDS011;59030;52.052;8.550;2023-05-07T14:26:38;4.57;;;4.10;;
71265;SDS011;59030;52.052;8.550;2023-05-07T14:41:21;4.53;;;4.10;;
71265;SDS011;59030;52.052;8.550;2023-05-07T14:52:56;5.58;;;4.17;;
71265;SDS011;59030;52.052;8.550;2023-05-07T14:55:47;4.30;;;3.90;;
71265;SDS011;59030;52.052;8.550;2023-05-07T14:58:34;5.22;;;4.45;;
71265;SDS011;59030;52.052;8.550;2023-05-07T15:01:13;4.85;;;4.35;;
71265;SDS011;59030;52.052;8.550;2023-05-07T15:03:48;4.87;;;4.37;;
71265;SDS011;59030;52.052;8.550;2023-05-07T15:06:21;5.10;;;4.40;;
71265;SDS011;59030;52.052;8.550;2023-05-07T15:11:39;5.60;;;4.70;;
71265;SDS011;59030;52.052;8.550;2023-05-07T15:45:34;5.63;;;4.60;;
71265;SDS011;59030;52.052;8.550;2023-05-07T15:48:22;5.77;;;4.83;;
71265;SDS011;59030;52.052;8.550;2023-05-07T15:54:26;5.60;;;4.70;;
71265;SDS011;59030;52.052;8.550;2023-05-07T16:17:53;6.50;;;5.20;;
71265;SDS011;59030;52.052;8.550;2023-05-07T16:37:00;5.70;;;5.00;;
71265;SDS011;59030;52.052;8.550;2023-05-07T17:01:18;6.67;;;4.87;;
71265;SDS011;59030;52.052;8.550;2023-05-07T17:03:52;6.17;;;4.63;;
71265;SDS011;59030;52.052;8.550;2023-05-07T17:06:36;5.97;;;4.97;;
71265;SDS011;59030;52.052;8.550;2023-05-07T17:09:08;5.30;;;4.80;;
71265;SDS011;59030;52.052;8.550;2023-05-07T17:11:38;5.27;;;4.77;;
71265;SDS011;59030;52.052;8.550;2023-05-07T17:19:43;6.23;;;4.97;;
71265;SDS011;59030;52.052;8.550;2023-05-07T17:22:31;6.37;;;5.00;;
71265;SDS011;59030;52.052;8.550;2023-05-07T17:25:12;6.00;;;5.10;;
71265;SDS011;59030;52.052;8.550;2023-05-07T17:27:45;6.23;;;5.63;;
71265;SDS011;59030;52.052;8.550;2023-05-07T17:33:22;7.23;;;6.40;;
71265;SDS011;59030;52.052;8.550;2023-05-07T17:41:33;9.37;;;6.37;;
71265;SDS011;59030;52.052;8.550;2023-05-07T17:44:04;6.87;;;5.70;;
71265;SDS011;59030;52.052;8.550;2023-05-07T17:46:38;8.13;;;6.53;;
71265;SDS011;59030;52.052;8.550;2023-05-07T17:49:28;7.20;;;6.50;;
71265;SDS011;59030;52.052;8.550;2023-05-07T17:52:16;7.13;;;6.43;;
71265;SDS011;59030;52.052;8.550;2023-05-07T17:55:02;7.83;;;6.63;;
71265;SDS011;59030;52.052;8.550;2023-05-07T17:57:36;7.17;;;6.23;;
71265;SDS011;59030;52.052;8.550;2023-05-07T18:00:10;9.77;;;6.50;;
71265;SDS011;59030;52.052;8.550;2023-05-07T19:09:54;9.93;;;8.03;;
71265;SDS011;59030;52.052;8.550;2023-05-07T19:15:53;10.50;;;7.97;;
71265;SDS011;59030;52.052;8.550;2023-05-07T20:00:17;11.87;;;8.73;;